createdAt,value
2022-10-28T00:00:16.674Z,95.90
2022-10-28T00:01:16.657Z,96.10
2022-10-28T00:02:16.640Z,96.06
2022-10-28T00:03:16.701Z,95.86
2022-10-28T00:04:16.704Z,95.75
2022-10-28T00:05:16.579Z,95.65
2022-10-28T00:06:16.565Z,95.55
2022-10-28T00:07:16.580Z,95.25
2022-10-28T00:08:16.536Z,94.94
2022-10-28T00:09:16.504Z,94.74
2022-10-28T00:10:16.518Z,94.64
2022-10-28T00:11:16.511Z,94.74
2022-10-28T00:12:16.492Z,94.54
2022-10-28T00:13:16.434Z,94.39
2022-10-28T00:14:16.487Z,94.34
2022-10-28T00:15:16.409Z,94.09
2022-10-28T00:16:16.487Z,94.29
2022-10-28T00:17:16.465Z,94.54
2022-10-28T00:18:16.461Z,94.49
2022-10-28T00:19:16.382Z,94.39
2022-10-28T00:20:16.444Z,94.09
2022-10-28T00:21:16.363Z,94.39
2022-10-28T00:22:16.379Z,94.09
2022-10-28T00:23:16.569Z,93.83
2022-10-28T00:24:16.331Z,93.93
2022-10-28T00:25:16.488Z,93.93
2022-10-28T00:26:16.365Z,94.09
2022-10-28T00:28:53.403Z,93.52
2022-10-28T00:32:17.331Z,94.34
2022-10-28T00:33:16.391Z,93.93
2022-10-28T00:34:17.363Z,93.32
2022-10-28T00:35:17.278Z,93.52
2022-10-28T00:36:17.285Z,94.34
2022-10-28T00:37:17.303Z,94.23
2022-10-28T00:38:17.321Z,94.43
2022-10-28T00:39:17.253Z,94.54
2022-10-28T00:40:17.269Z,94.34
2022-10-28T00:41:17.233Z,94.54
2022-10-28T00:42:17.208Z,94.43
2022-10-28T00:43:17.519Z,94.23
2022-10-28T00:44:17.177Z,94.43
2022-10-28T00:45:17.151Z,94.64
2022-10-28T00:46:17.236Z,94.64
2022-10-28T00:47:17.222Z,94.43
2022-10-28T00:48:17.192Z,94.39
2022-10-28T00:49:17.218Z,94.29
2022-10-28T00:50:17.215Z,93.88
2022-10-28T00:51:17.160Z,93.73
2022-10-28T00:52:17.181Z,94.09
2022-10-28T00:53:17.112Z,94.39
2022-10-28T00:54:17.089Z,94.29
2022-10-28T00:55:17.052Z,94.29
2022-10-28T00:56:17.137Z,93.88
2022-10-28T00:57:17.130Z,93.68
2022-10-28T00:58:17.088Z,93.78
2022-10-28T00:59:17.116Z,93.48
2022-10-28T01:00:17.305Z,93.48
2022-10-28T01:01:17.143Z,93.78
2022-10-28T01:02:17.083Z,93.88
2022-10-28T01:03:16.937Z,93.48
2022-10-28T01:04:16.976Z,93.33
2022-10-28T01:07:11.871Z,93.13
2022-10-28T01:08:11.419Z,92.93
2022-10-28T01:09:11.368Z,92.93
2022-10-28T01:10:11.320Z,93.33
2022-10-28T01:11:11.353Z,92.83
2022-10-28T01:12:11.357Z,92.93
2022-10-28T01:13:12.399Z,92.93
2022-10-28T01:14:11.378Z,92.93
2022-10-28T01:15:11.292Z,92.83
2022-10-28T01:16:11.330Z,92.63
2022-10-28T01:17:11.525Z,92.52
2022-10-28T01:18:11.295Z,92.52
2022-10-28T01:19:11.274Z,92.42
2022-10-28T01:20:11.270Z,92.52
2022-10-28T01:21:11.274Z,91.92
2022-10-28T01:22:11.231Z,91.37
2022-10-28T01:23:11.249Z,91.27
2022-10-28T01:24:11.215Z,90.76
2022-10-28T01:25:11.241Z,90.41
2022-10-28T01:26:11.185Z,89.81
2022-10-28T01:27:11.238Z,89.70
2022-10-28T01:28:11.173Z,89.36
2022-10-28T01:29:11.186Z,89.70
2022-10-28T01:30:11.122Z,89.40
2022-10-28T01:31:11.149Z,89.36
2022-10-28T01:32:11.225Z,89.56
2022-10-28T01:33:11.137Z,89.30
2022-10-28T01:34:11.116Z,89.36
2022-10-28T01:35:11.118Z,89.40
2022-10-28T01:36:11.053Z,89.40
2022-10-28T01:37:11.035Z,89.50
2022-10-28T01:40:17.319Z,89.00
2022-10-28T04:47:09.045Z,89.35
2022-10-28T04:48:10.025Z,89.55
2022-10-28T05:54:45.803Z,92.44
2022-10-28T05:55:47.870Z,91.73
2022-10-28T05:56:46.513Z,91.17
2022-10-28T05:57:46.506Z,90.77
2022-10-28T05:58:46.524Z,90.77
2022-10-28T05:59:46.463Z,90.73
2022-10-28T06:00:46.454Z,90.22
2022-10-28T06:01:46.452Z,89.81
2022-10-28T06:02:46.459Z,89.31
2022-10-28T06:03:46.475Z,89.31
2022-10-28T06:04:46.487Z,89.17
2022-10-28T06:05:46.460Z,88.96
2022-10-28T06:06:46.457Z,88.46
2022-10-28T06:07:46.365Z,88.76
2022-10-28T06:08:46.373Z,88.46
2022-10-28T06:09:46.435Z,88.11
2022-10-28T06:10:48.488Z,87.71
2022-10-28T06:11:44.853Z,87.51
2022-10-28T06:12:44.818Z,87.51
2022-10-28T06:13:44.844Z,87.20
2022-10-28T06:14:44.805Z,86.90
2022-10-28T06:15:44.740Z,86.85
2022-10-28T06:16:44.754Z,87.00
2022-10-28T06:17:44.794Z,86.79
2022-10-28T06:18:44.806Z,86.85
2022-10-28T06:19:44.738Z,86.55
2022-10-28T07:28:58.667Z,83.76
2022-10-28T07:29:59.562Z,83.26
2022-10-28T07:30:59.693Z,83.36
2022-10-28T07:31:59.408Z,83.15
2022-10-28T07:32:59.488Z,83.46
2022-10-28T07:33:59.403Z,83.05
2022-10-28T07:34:59.415Z,83.22
2022-10-28T07:35:59.358Z,82.91
2022-10-28T07:36:59.365Z,82.61
2022-10-28T07:37:59.386Z,83.01
2022-10-28T07:38:59.421Z,82.71
2022-10-28T07:39:59.382Z,83.01
2022-10-28T07:40:59.299Z,82.51
2022-10-28T07:42:00.303Z,82.17
2022-10-28T07:49:21.067Z,81.56
2022-10-28T07:50:22.396Z,81.96
2022-10-28T08:19:40.719Z,80.18
2022-10-28T08:19:45.951Z,80.38
2022-10-28T09:07:26.593Z,78.21
2022-10-28T10:22:07.476Z,73.60
2022-10-28T10:57:49.748Z,69.89
2022-10-28T12:59:18.771Z,63.11
2022-10-28T13:08:25.108Z,63.98
2022-10-28T13:09:26.143Z,63.38
2022-10-28T13:10:25.870Z,63.18
2022-10-28T13:17:41.788Z,62.18
2022-10-28T13:27:20.294Z,62.59
